PWSweather.com
Personal Weather Stations
Station Observations
ISOUTHAE3
Liopessi Beach, Port Of Gavrio, Island Of AndrosGR 84501

Liopessi Beach, Port Of GavrioIsland Of AndrosGR 84501

Lat: 37.881379, Lon: 24.745103

Elevation: 52

Station Type: DAVIS Vantage Pro2

http://users.otenet.gr/~vbb/rt.html

Latest ConditionsUpdated 10:00:00 AM GMT+02:02 Sunday, Jun 16, 2019
Currently Today's Max Today's Min Today's Average
Temperature 81.1°F27.3°C 81.1°F27.3°C 74.5°F23.6°C 76.3°F24.6°C
Dew Point 60.3°F15.7°C 68.5°F20.3°C 60.1°F15.6°C 66.8°F19.3°C
Winds 15.0 mph NNE24.1 kmh NNE 19.0 mph -30.6 kmh - - 11.9 mph 19.2 kmh
Wind Gusts 26.0 mph41.8 kmh 36.0 mph57.9 kmh - -
Humidity 49% 80% 49% 73%
Pressure 29.82 in1009.8 mb 29.82 in1009.8 mb 29.77 in1008.1 mb -
Hour Temp Dew Point Humidity Winds Wind Gusts Pressure Precip Precip Rate Daily Precip Total
10:00 AM 81.1°F27.3°C 60.3°F15.7°C 49% 15.0 mph NNE24.1 kmh NNE 26.0 mph41.8 kmh 29.82 in1009.8 mb 0.00 in0.0 mm 0.00 in0.0 mm 0.00 in0.0 mm
09:50 AM 81.1°F27.3°C 60.8°F16.0°C 50% 16.0 mph NNE25.7 kmh NNE 28.0 mph45.1 kmh 29.81 in1009.5 mb 0.00 in0.0 mm 0.00 in0.0 mm 0.00 in0.0 mm
09:40 AM 80.8°F27.1°C 61.0°F16.1°C 51% 17.0 mph NNE27.4 kmh NNE 30.0 mph48.3 kmh 29.81 in1009.5 mb 0.00 in0.0 mm 0.00 in0.0 mm 0.00 in0.0 mm
09:30 AM 80.4°F26.9°C 60.1°F15.6°C 50% 18.0 mph NNE29.0 kmh NNE 32.0 mph51.5 kmh 29.81 in1009.5 mb 0.00 in0.0 mm 0.00 in0.0 mm 0.00 in0.0 mm
09:20 AM 80.4°F26.9°C 60.6°F15.9°C 51% 17.0 mph NNE27.4 kmh NNE 28.0 mph45.1 kmh 29.80 in1009.1 mb 0.00 in0.0 mm 0.00 in0.0 mm 0.00 in0.0 mm
09:10 AM 80.1°F26.7°C 61.9°F16.6°C 54% 16.0 mph NNE25.7 kmh NNE 28.0 mph45.1 kmh 29.81 in1009.5 mb 0.00 in0.0 mm 0.00 in0.0 mm 0.00 in0.0 mm
09:01 AM 79.5°F26.4°C 63.0°F17.2°C 57% 16.0 mph NNE25.7 kmh NNE 31.0 mph49.9 kmh 29.81 in1009.5 mb 0.00 in0.0 mm 0.00 in0.0 mm 0.00 in0.0 mm
08:50 AM 79.3°F26.3°C 63.7°F17.6°C 59% 18.0 mph NNE29.0 kmh NNE 32.0 mph51.5 kmh 29.80 in1009.1 mb 0.00 in0.0 mm 0.00 in0.0 mm 0.00 in0.0 mm
08:40 AM 79.2°F26.2°C 64.6°F18.1°C 61% 19.0 mph NE30.6 kmh NE 36.0 mph57.9 kmh 29.80 in1009.1 mb 0.00 in0.0 mm 0.00 in0.0 mm 0.00 in0.0 mm
08:30 AM 78.8°F26.0°C 64.2°F17.9°C 61% 17.0 mph NNE27.4 kmh NNE 36.0 mph57.9 kmh 29.80 in1009.1 mb 0.00 in0.0 mm 0.00 in0.0 mm 0.00 in0.0 mm
08:20 AM 78.6°F25.9°C 65.5°F18.6°C 64% 18.0 mph NNE29.0 kmh NNE 30.0 mph48.3 kmh 29.80 in1009.1 mb 0.00 in0.0 mm 0.00 in0.0 mm 0.00 in0.0 mm
08:10 AM 78.3°F25.7°C 65.5°F18.6°C 65% 19.0 mph NNE30.6 kmh NNE 30.0 mph48.3 kmh 29.79 in1008.8 mb 0.00 in0.0 mm 0.00 in0.0 mm 0.00 in0.0 mm
08:00 AM 78.1°F25.6°C 65.8°F18.8°C 66% 18.0 mph NNE29.0 kmh NNE 32.0 mph51.5 kmh 29.79 in1008.8 mb 0.00 in0.0 mm 0.00 in0.0 mm 0.00 in0.0 mm
07:50 AM 77.7°F25.4°C 66.4°F19.1°C 68% 18.0 mph NE29.0 kmh NE 32.0 mph51.5 kmh 29.79 in1008.8 mb 0.00 in0.0 mm 0.00 in0.0 mm 0.00 in0.0 mm
07:40 AM 77.5°F25.3°C 66.9°F19.4°C 70% 16.0 mph NNE25.7 kmh NNE 34.0 mph54.7 kmh 29.80 in1009.1 mb 0.00 in0.0 mm 0.00 in0.0 mm 0.00 in0.0 mm
07:30 AM 77.5°F25.3°C 68.2°F20.1°C 73% 13.0 mph NE20.9 kmh NE 27.0 mph43.5 kmh 29.81 in1009.5 mb 0.00 in0.0 mm 0.00 in0.0 mm 0.00 in0.0 mm
07:20 AM 76.8°F24.9°C 68.4°F20.2°C 75% 11.0 mph NE17.7 kmh NE 23.0 mph37.0 kmh 29.81 in1009.5 mb 0.00 in0.0 mm 0.00 in0.0 mm 0.00 in0.0 mm
07:10 AM 76.3°F24.6°C 68.5°F20.3°C 77% 11.0 mph NE17.7 kmh NE 23.0 mph37.0 kmh 29.80 in1009.1 mb 0.00 in0.0 mm 0.00 in0.0 mm 0.00 in0.0 mm
07:00 AM 75.9°F24.4°C 68.2°F20.1°C 77% 9.0 mph NE14.5 kmh NE 18.0 mph29.0 kmh 29.81 in1009.5 mb 0.00 in0.0 mm 0.00 in0.0 mm 0.00 in0.0 mm
06:50 AM 75.9°F24.4°C 68.2°F20.1°C 77% 10.0 mph NE16.1 kmh NE 24.0 mph38.6 kmh 29.81 in1009.5 mb 0.00 in0.0 mm 0.00 in0.0 mm 0.00 in0.0 mm
06:40 AM 75.7°F24.3°C 68.0°F20.0°C 77% 9.0 mph NE14.5 kmh NE 18.0 mph29.0 kmh 29.81 in1009.5 mb 0.00 in0.0 mm 0.00 in0.0 mm 0.00 in0.0 mm
06:30 AM 75.9°F24.4°C 67.8°F19.9°C 76% 8.0 mph NE12.9 kmh NE 19.0 mph30.6 kmh 29.81 in1009.5 mb 0.00 in0.0 mm 0.00 in0.0 mm 0.00 in0.0 mm
06:20 AM 75.9°F24.4°C 67.8°F19.9°C 76% 10.0 mph NE16.1 kmh NE 25.0 mph40.2 kmh 29.81 in1009.5 mb 0.00 in0.0 mm 0.00 in0.0 mm 0.00 in0.0 mm
06:10 AM 75.6°F24.2°C 67.5°F19.7°C 76% 12.0 mph NE19.3 kmh NE 25.0 mph40.2 kmh 29.80 in1009.1 mb 0.00 in0.0 mm 0.00 in0.0 mm 0.00 in0.0 mm
06:00 AM 75.0°F23.9°C 66.9°F19.4°C 76% 12.0 mph NE19.3 kmh NE 22.0 mph35.4 kmh 29.80 in1009.1 mb 0.00 in0.0 mm 0.00 in0.0 mm 0.00 in0.0 mm
05:50 AM 74.8°F23.8°C 66.7°F19.3°C 76% 12.0 mph NE19.3 kmh NE 28.0 mph45.1 kmh 29.80 in1009.1 mb 0.00 in0.0 mm 0.00 in0.0 mm 0.00 in0.0 mm
05:40 AM 74.7°F23.7°C 66.9°F19.4°C 77% 13.0 mph NNE20.9 kmh NNE 26.0 mph41.8 kmh 29.80 in1009.1 mb 0.00 in0.0 mm 0.00 in0.0 mm 0.00 in0.0 mm
05:30 AM 74.5°F23.6°C 67.6°F19.8°C 79% 12.0 mph NNE19.3 kmh NNE 29.0 mph46.7 kmh 29.80 in1009.1 mb 0.00 in0.0 mm 0.00 in0.0 mm 0.00 in0.0 mm
05:20 AM 74.5°F23.6°C 67.8°F19.9°C 80% 12.0 mph NE19.3 kmh NE 25.0 mph40.2 kmh 29.80 in1009.1 mb 0.00 in0.0 mm 0.00 in0.0 mm 0.00 in0.0 mm
05:10 AM 74.5°F23.6°C 67.8°F19.9°C 80% 12.0 mph NE19.3 kmh NE 24.0 mph38.6 kmh 29.79 in1008.8 mb 0.00 in0.0 mm 0.00 in0.0 mm 0.00 in0.0 mm
05:00 AM 74.5°F23.6°C 68.0°F20.0°C 80% 11.0 mph NNE17.7 kmh NNE 25.0 mph40.2 kmh 29.79 in1008.8 mb 0.00 in0.0 mm 0.00 in0.0 mm 0.00 in0.0 mm
04:50 AM 74.7°F23.7°C 68.0°F20.0°C 80% 11.0 mph NE17.7 kmh NE 23.0 mph37.0 kmh 29.78 in1008.5 mb 0.00 in0.0 mm 0.00 in0.0 mm 0.00 in0.0 mm
04:40 AM 74.7°F23.7°C 68.2°F20.1°C 80% 10.0 mph NE16.1 kmh NE 21.0 mph33.8 kmh 29.78 in1008.5 mb 0.00 in0.0 mm 0.00 in0.0 mm 0.00 in0.0 mm
04:30 AM 74.8°F23.8°C 68.2°F20.1°C 80% 10.0 mph NE16.1 kmh NE 19.0 mph30.6 kmh 29.77 in1008.1 mb 0.00 in0.0 mm 0.00 in0.0 mm 0.00 in0.0 mm
04:20 AM 74.7°F23.7°C 67.8°F19.9°C 79% 13.0 mph NE20.9 kmh NE 21.0 mph33.8 kmh 29.77 in1008.1 mb 0.00 in0.0 mm 0.00 in0.0 mm 0.00 in0.0 mm
04:10 AM 74.7°F23.7°C 67.8°F19.9°C 79% 11.0 mph NNE17.7 kmh NNE 21.0 mph33.8 kmh 29.78 in1008.5 mb 0.00 in0.0 mm 0.00 in0.0 mm 0.00 in0.0 mm
04:00 AM 74.7°F23.7°C 67.6°F19.8°C 79% 9.0 mph NE14.5 kmh NE 20.0 mph32.2 kmh 29.78 in1008.5 mb 0.00 in0.0 mm 0.00 in0.0 mm 0.00 in0.0 mm
03:50 AM 74.7°F23.7°C 67.6°F19.8°C 79% 9.0 mph NE14.5 kmh NE 18.0 mph29.0 kmh 29.78 in1008.5 mb 0.00 in0.0 mm 0.00 in0.0 mm 0.00 in0.0 mm
03:40 AM 74.7°F23.7°C 67.6°F19.8°C 79% 9.0 mph NE14.5 kmh NE 18.0 mph29.0 kmh 29.77 in1008.1 mb 0.00 in0.0 mm 0.00 in0.0 mm 0.00 in0.0 mm
03:30 AM 74.7°F23.7°C 67.6°F19.8°C 79% 10.0 mph NE16.1 kmh NE 19.0 mph30.6 kmh 29.77 in1008.1 mb 0.00 in0.0 mm 0.00 in0.0 mm 0.00 in0.0 mm
03:20 AM 74.7°F23.7°C 67.6°F19.8°C 79% 10.0 mph NNE16.1 kmh NNE 18.0 mph29.0 kmh 29.77 in1008.1 mb 0.00 in0.0 mm 0.00 in0.0 mm 0.00 in0.0 mm
03:10 AM 74.8°F23.8°C 68.2°F20.1°C 80% 10.0 mph NNE16.1 kmh NNE 21.0 mph33.8 kmh 29.78 in1008.5 mb 0.00 in0.0 mm 0.00 in0.0 mm 0.00 in0.0 mm
03:00 AM 74.8°F23.8°C 68.4°F20.2°C 80% 11.0 mph NNE17.7 kmh NNE 17.0 mph27.4 kmh 29.78 in1008.5 mb 0.00 in0.0 mm 0.00 in0.0 mm 0.00 in0.0 mm
02:50 AM 74.8°F23.8°C 68.0°F20.0°C 79% 9.0 mph NE14.5 kmh NE 22.0 mph35.4 kmh 29.79 in1008.8 mb 0.00 in0.0 mm 0.00 in0.0 mm 0.00 in0.0 mm
02:40 AM 75.0°F23.9°C 68.0°F20.0°C 79% 9.0 mph NNE14.5 kmh NNE 20.0 mph32.2 kmh 29.79 in1008.8 mb 0.00 in0.0 mm 0.00 in0.0 mm 0.00 in0.0 mm
02:30 AM 75.0°F23.9°C 68.0°F20.0°C 79% 7.0 mph NNE11.3 kmh NNE 15.0 mph24.1 kmh 29.80 in1009.1 mb 0.00 in0.0 mm 0.00 in0.0 mm 0.00 in0.0 mm
02:20 AM 75.0°F23.9°C 68.0°F20.0°C 79% 7.0 mph NE11.3 kmh NE 24.0 mph38.6 kmh 29.79 in1008.8 mb 0.00 in0.0 mm 0.00 in0.0 mm 0.00 in0.0 mm
02:10 AM 75.0°F23.9°C 68.0°F20.0°C 79% 9.0 mph NNE14.5 kmh NNE 18.0 mph29.0 kmh 29.79 in1008.8 mb 0.00 in0.0 mm 0.00 in0.0 mm 0.00 in0.0 mm
02:00 AM 75.0°F23.9°C 68.0°F20.0°C 79% 9.0 mph NE14.5 kmh NE 19.0 mph30.6 kmh 29.79 in1008.8 mb 0.00 in0.0 mm 0.00 in0.0 mm 0.00 in0.0 mm
01:50 AM 75.0°F23.9°C 68.4°F20.2°C 80% 10.0 mph NE16.1 kmh NE 22.0 mph35.4 kmh 29.79 in1008.8 mb 0.00 in0.0 mm 0.00 in0.0 mm 0.00 in0.0 mm
01:40 AM 75.2°F24.0°C 68.5°F20.3°C 80% 9.0 mph NNE14.5 kmh NNE 22.0 mph35.4 kmh 29.80 in1009.1 mb 0.00 in0.0 mm 0.00 in0.0 mm 0.00 in0.0 mm
01:30 AM 75.4°F24.1°C 68.4°F20.2°C 79% 9.0 mph NE14.5 kmh NE 19.0 mph30.6 kmh 29.80 in1009.1 mb 0.00 in0.0 mm 0.00 in0.0 mm 0.00 in0.0 mm
01:20 AM 75.4°F24.1°C 68.4°F20.2°C 79% 8.0 mph NE12.9 kmh NE 17.0 mph27.4 kmh 29.80 in1009.1 mb 0.00 in0.0 mm 0.00 in0.0 mm 0.00 in0.0 mm
01:10 AM 75.4°F24.1°C 68.4°F20.2°C 79% 10.0 mph NE16.1 kmh NE 28.0 mph45.1 kmh 29.80 in1009.1 mb 0.00 in0.0 mm 0.00 in0.0 mm 0.00 in0.0 mm
01:00 AM 75.4°F24.1°C 68.0°F20.0°C 78% 11.0 mph NNE17.7 kmh NNE 24.0 mph38.6 kmh 29.80 in1009.1 mb 0.00 in0.0 mm 0.00 in0.0 mm 0.00 in0.0 mm
12:50 AM 75.6°F24.2°C 68.2°F20.1°C 78% 7.0 mph NNE11.3 kmh NNE 17.0 mph27.4 kmh 29.80 in1009.1 mb 0.00 in0.0 mm 0.00 in0.0 mm 0.00 in0.0 mm
12:40 AM 75.7°F24.3°C 68.4°F20.2°C 78% 8.0 mph NNE12.9 kmh NNE 20.0 mph32.2 kmh 29.81 in1009.5 mb 0.00 in0.0 mm 0.00 in0.0 mm 0.00 in0.0 mm
12:30 AM 75.7°F24.3°C 68.0°F20.0°C 77% 10.0 mph NNE16.1 kmh NNE 21.0 mph33.8 kmh 29.81 in1009.5 mb 0.00 in0.0 mm 0.00 in0.0 mm 0.00 in0.0 mm
12:20 AM 75.7°F24.3°C 67.6°F19.8°C 76% 10.0 mph NE16.1 kmh NE 22.0 mph35.4 kmh 29.81 in1009.5 mb 0.00 in0.0 mm 0.00 in0.0 mm 0.00 in0.0 mm
12:10 AM 75.9°F24.4°C 67.8°F19.9°C 76% 12.0 mph NNE19.3 kmh NNE 23.0 mph37.0 kmh 29.80 in1009.1 mb 0.00 in0.0 mm 0.00 in0.0 mm 0.00 in0.0 mm
12:00 AM 76.1°F24.5°C 67.6°F19.8°C 75% 14.0 mph NNE22.5 kmh NNE 26.0 mph41.8 kmh 29.80 in1009.1 mb 0.00 in0.0 mm 0.00 in0.0 mm 0.00 in0.0 mm